createdAt,value
2022-12-25T00:00:26.393Z,100.00
2022-12-25T00:03:32.887Z,100.00
2022-12-25T00:06:39.338Z,100.00
2022-12-25T00:09:47.064Z,100.00
2022-12-25T00:12:53.684Z,100.00
2022-12-25T00:16:00.290Z,100.00
2022-12-25T00:19:06.516Z,100.00
2022-12-25T00:22:12.919Z,100.00
2022-12-25T00:25:20.500Z,100.00
2022-12-25T00:28:27.421Z,100.00
2022-12-25T00:31:34.829Z,100.00
2022-12-25T00:34:41.000Z,100.00
2022-12-25T00:37:47.149Z,100.00
2022-12-25T00:40:55.364Z,100.00
2022-12-25T00:44:01.460Z,100.00
2022-12-25T00:47:07.911Z,100.00
2022-12-25T00:50:14.229Z,100.00
2022-12-25T00:53:20.663Z,100.00
2022-12-25T00:56:28.298Z,100.00
2022-12-25T00:59:35.194Z,100.00
2022-12-25T01:02:41.620Z,100.00
2022-12-25T01:05:56.936Z,100.00
2022-12-25T01:09:16.917Z,100.00
2022-12-25T01:12:24.386Z,100.00
2022-12-25T01:15:30.975Z,100.00
2022-12-25T01:18:38.111Z,100.00
2022-12-25T01:21:44.478Z,100.00
2022-12-25T01:24:51.239Z,100.00
2022-12-25T01:27:59.007Z,100.00
2022-12-25T01:31:06.791Z,100.00
2022-12-25T01:34:12.883Z,100.00
2022-12-25T01:37:19.358Z,100.00
2022-12-25T01:40:26.205Z,100.00
2022-12-25T01:43:34.914Z,100.00
2022-12-25T01:46:41.446Z,100.00
2022-12-25T01:49:51.059Z,100.00
2022-12-25T01:52:59.155Z,100.00
2022-12-25T01:56:09.275Z,100.00
2022-12-25T01:59:20.861Z,100.00
2022-12-25T02:02:27.417Z,100.00
2022-12-25T02:05:35.622Z,100.00
2022-12-25T02:08:42.242Z,100.00
2022-12-25T02:12:00.818Z,100.00
2022-12-25T02:15:12.477Z,100.00
2022-12-25T02:18:25.499Z,100.00
2022-12-25T02:21:57.207Z,100.00
2022-12-25T02:25:22.307Z,100.00
2022-12-25T02:28:36.207Z,100.00
2022-12-25T02:31:49.825Z,100.00
2022-12-25T02:35:03.473Z,100.00
2022-12-25T02:38:17.030Z,100.00
2022-12-25T02:41:22.768Z,100.00
2022-12-25T02:44:49.636Z,100.00
2022-12-25T02:48:13.314Z,100.00
2022-12-25T02:51:39.727Z,100.00
2022-12-25T02:55:07.922Z,100.00
2022-12-25T02:58:36.416Z,100.00
2022-12-25T03:02:02.616Z,100.00
2022-12-25T03:05:30.927Z,100.00
2022-12-25T03:08:41.905Z,100.00
2022-12-25T03:11:54.700Z,100.00
2022-12-25T03:15:18.414Z,100.00
2022-12-25T03:18:29.725Z,100.00
2022-12-25T03:21:53.253Z,100.00
2022-12-25T03:25:17.391Z,100.00
2022-12-25T03:28:23.686Z,100.00
2022-12-25T03:31:39.293Z,100.00
2022-12-25T03:35:12.019Z,100.00
2022-12-25T03:38:46.364Z,100.00
2022-12-25T03:42:16.467Z,100.00
2022-12-25T03:45:47.576Z,100.00
2022-12-25T03:49:19.493Z,100.00
2022-12-25T03:52:47.161Z,100.00
2022-12-25T03:56:12.505Z,100.00
2022-12-25T03:59:38.262Z,100.00
2022-12-25T04:03:02.088Z,100.00
2022-12-25T04:06:26.032Z,100.00
2022-12-25T04:09:50.913Z,100.00
2022-12-25T04:13:14.929Z,100.00
2022-12-25T04:16:38.557Z,100.00
2022-12-25T04:20:02.733Z,100.00
2022-12-25T04:23:26.486Z,100.00
2022-12-25T04:26:50.743Z,100.00
2022-12-25T04:30:13.979Z,100.00
2022-12-25T04:33:37.881Z,100.00
2022-12-25T04:36:45.041Z,100.00
2022-12-25T04:39:51.232Z,100.00
2022-12-25T04:42:59.115Z,100.00
2022-12-25T04:46:06.735Z,100.00
2022-12-25T04:49:13.134Z,100.00
2022-12-25T04:52:19.334Z,100.00
2022-12-25T04:55:25.657Z,100.00
2022-12-25T04:58:34.288Z,100.00
2022-12-25T05:01:40.761Z,100.00
2022-12-25T05:04:47.930Z,100.00
2022-12-25T05:07:54.112Z,100.00
2022-12-25T05:11:00.968Z,100.00
2022-12-25T05:14:08.333Z,100.00
2022-12-25T05:17:15.178Z,100.00
2022-12-25T05:20:21.552Z,100.00
2022-12-25T05:23:27.882Z,100.00
2022-12-25T05:26:34.007Z,100.00
2022-12-25T05:29:41.762Z,100.00
2022-12-25T05:32:48.943Z,100.00
2022-12-25T05:35:55.189Z,100.00
2022-12-25T05:39:01.714Z,100.00
2022-12-25T05:42:07.950Z,100.00
2022-12-25T05:45:15.860Z,100.00
2022-12-25T05:48:22.056Z,100.00
2022-12-25T05:51:28.233Z,100.00
2022-12-25T05:54:35.544Z,100.00
2022-12-25T05:57:41.676Z,100.00
2022-12-25T06:00:49.639Z,100.00
2022-12-25T06:03:56.021Z,100.00
2022-12-25T06:07:02.219Z,100.00
2022-12-25T06:10:09.779Z,100.00
2022-12-25T06:13:16.081Z,100.00
2022-12-25T06:16:23.691Z,100.00
2022-12-25T06:19:30.090Z,100.00
2022-12-25T06:22:36.312Z,100.00
2022-12-25T06:25:42.588Z,100.00
2022-12-25T06:28:49.209Z,100.00
2022-12-25T06:31:57.600Z,100.00
2022-12-25T06:35:04.372Z,100.00
2022-12-25T06:38:10.605Z,100.00
2022-12-25T06:41:18.899Z,100.00
2022-12-25T06:44:25.042Z,100.00
2022-12-25T06:47:32.386Z,100.00
2022-12-25T06:50:44.313Z,100.00
2022-12-25T06:53:52.128Z,100.00
2022-12-25T06:56:58.373Z,100.00
2022-12-25T07:00:05.054Z,100.00
2022-12-25T07:03:21.380Z,100.00
2022-12-25T07:06:28.506Z,100.00
2022-12-25T07:09:35.831Z,100.00
2022-12-25T07:12:41.924Z,100.00
2022-12-25T07:15:48.454Z,100.00
2022-12-25T07:18:56.259Z,100.00
2022-12-25T07:22:02.505Z,100.00
2022-12-25T07:25:09.591Z,100.00
2022-12-25T07:28:16.041Z,100.00
2022-12-25T07:31:22.671Z,100.00
2022-12-25T07:34:30.567Z,100.00
2022-12-25T07:37:36.718Z,100.00
2022-12-25T07:40:46.410Z,100.00
2022-12-25T07:43:53.057Z,100.00
2022-12-25T07:46:59.160Z,100.00
2022-12-25T07:50:08.896Z,100.00
2022-12-25T07:53:14.984Z,100.00
2022-12-25T07:56:21.898Z,100.00
2022-12-25T07:59:28.197Z,100.00
2022-12-25T08:02:34.556Z,100.00
2022-12-25T08:05:42.213Z,100.00
2022-12-25T08:08:48.900Z,100.00
2022-12-25T08:11:54.990Z,100.00
2022-12-25T08:15:01.268Z,100.00
2022-12-25T08:18:07.374Z,100.00
2022-12-25T08:21:16.041Z,100.00
2022-12-25T08:24:22.698Z,100.00
2022-12-25T08:27:29.322Z,100.00
2022-12-25T08:30:35.643Z,100.00
2022-12-25T08:33:41.649Z,100.00
2022-12-25T08:36:49.928Z,100.00
2022-12-25T08:39:56.408Z,100.00
2022-12-25T08:43:03.014Z,100.00
2022-12-25T08:46:09.753Z,98.29
2022-12-25T08:49:16.488Z,100.00
2022-12-25T08:52:24.035Z,98.61
2022-12-25T08:55:30.618Z,93.96
2022-12-25T08:58:37.252Z,90.81
2022-12-25T09:01:43.815Z,87.77
2022-12-25T09:04:50.544Z,86.42
2022-12-25T09:07:58.138Z,86.43
2022-12-25T09:11:04.474Z,86.19
2022-12-25T09:14:10.936Z,85.78
2022-12-25T09:17:16.747Z,85.11
2022-12-25T09:20:22.774Z,82.82
2022-12-25T09:23:33.645Z,80.37
2022-12-25T09:26:40.194Z,79.88
2022-12-25T09:29:46.207Z,79.57
2022-12-25T09:32:52.435Z,76.54
2022-12-25T09:36:00.451Z,77.52
2022-12-25T09:39:08.644Z,77.11
2022-12-25T09:42:18.479Z,77.44
2022-12-25T09:45:28.351Z,76.39
2022-12-25T09:48:36.951Z,74.94
2022-12-25T09:51:45.413Z,71.86
2022-12-25T09:54:59.182Z,68.59
2022-12-25T09:58:12.831Z,69.55
2022-12-25T10:01:27.393Z,70.15
2022-12-25T10:04:54.870Z,71.01
2022-12-25T10:08:08.905Z,71.00
2022-12-25T10:11:25.138Z,68.56
2022-12-25T10:14:37.805Z,70.06
2022-12-25T10:18:02.019Z,70.57
2022-12-25T10:21:13.334Z,68.61
2022-12-25T10:24:31.983Z,71.57
2022-12-25T10:27:42.842Z,71.04
2022-12-25T10:30:51.410Z,71.59
2022-12-25T10:33:59.536Z,72.73
2022-12-25T10:37:05.863Z,70.92
2022-12-25T10:40:31.214Z,70.12
2022-12-25T10:43:43.518Z,70.61
2022-12-25T10:46:51.279Z,69.93
2022-12-25T10:49:59.369Z,69.10
2022-12-25T10:53:09.531Z,71.59
2022-12-25T10:56:18.917Z,69.32
2022-12-25T10:59:27.845Z,69.66
2022-12-25T11:02:41.075Z,69.50
2022-12-25T11:05:51.529Z,68.96
2022-12-25T11:08:59.689Z,67.93
2022-12-25T11:12:06.902Z,68.26
2022-12-25T11:15:35.459Z,69.12
2022-12-25T11:18:49.979Z,70.06
2022-12-25T11:21:58.312Z,69.06
2022-12-25T11:25:13.511Z,68.91
2022-12-25T11:28:19.877Z,68.69
2022-12-25T11:31:36.635Z,68.10
2022-12-25T11:34:45.784Z,67.87
2022-12-25T11:37:53.532Z,67.30
2022-12-25T11:41:04.007Z,67.85
2022-12-25T11:44:26.664Z,68.30
2022-12-25T11:47:37.773Z,67.87
2022-12-25T11:50:48.067Z,67.44
2022-12-25T11:53:57.046Z,67.89
2022-12-25T11:57:07.654Z,68.18
2022-12-25T12:00:17.127Z,67.65
2022-12-25T12:03:28.628Z,68.17
2022-12-25T12:06:46.767Z,66.21
2022-12-25T12:09:59.672Z,67.08
2022-12-25T12:13:30.656Z,65.32
2022-12-25T12:16:37.380Z,66.54
2022-12-25T12:19:45.063Z,65.59
2022-12-25T12:22:51.950Z,64.87
2022-12-25T12:25:59.118Z,65.17
2022-12-25T12:29:08.438Z,63.78
2022-12-25T12:32:30.340Z,63.30
2022-12-25T12:35:41.263Z,62.66
2022-12-25T12:38:47.712Z,62.93
2022-12-25T12:41:54.906Z,62.50
2022-12-25T12:45:11.743Z,62.06
2022-12-25T12:48:26.348Z,62.22
2022-12-25T12:51:37.064Z,62.36
2022-12-25T12:54:57.196Z,62.21
2022-12-25T12:58:05.294Z,61.41
2022-12-25T13:01:21.890Z,60.46
2022-12-25T13:04:45.470Z,60.70
2022-12-25T13:08:04.135Z,60.61
2022-12-25T13:11:17.927Z,60.40
2022-12-25T13:14:25.838Z,61.49
2022-12-25T13:17:32.117Z,60.08
2022-12-25T13:20:46.197Z,58.68
2022-12-25T13:24:00.561Z,58.12
2022-12-25T13:27:23.123Z,58.93
2022-12-25T13:30:29.594Z,57.85
2022-12-25T13:33:36.386Z,56.90
2022-12-25T13:36:43.050Z,57.55
2022-12-25T13:39:53.324Z,59.44
2022-12-25T13:43:02.387Z,62.21
2022-12-25T13:46:09.049Z,62.74
2022-12-25T13:49:17.887Z,64.07
2022-12-25T13:52:29.746Z,64.45
2022-12-25T13:55:37.945Z,64.98
2022-12-25T13:58:45.242Z,65.31
2022-12-25T14:01:52.609Z,65.32
2022-12-25T14:04:58.937Z,67.41
2022-12-25T14:08:13.696Z,67.54
2022-12-25T14:11:23.988Z,68.87
2022-12-25T14:14:31.016Z,68.20
2022-12-25T14:17:37.334Z,69.40
2022-12-25T14:20:56.042Z,69.70
2022-12-25T14:24:02.596Z,69.30
2022-12-25T14:27:20.817Z,68.42
2022-12-25T14:30:30.263Z,67.95
2022-12-25T14:33:40.042Z,68.48
2022-12-25T14:36:46.790Z,69.55
2022-12-25T14:39:58.433Z,67.99
2022-12-25T14:43:22.296Z,68.37
2022-12-25T14:46:31.093Z,69.10
2022-12-25T14:49:38.156Z,68.84
2022-12-25T14:52:46.270Z,69.55
2022-12-25T14:55:55.118Z,69.98
2022-12-25T14:59:02.967Z,70.63
2022-12-25T15:02:20.375Z,72.09
2022-12-25T15:05:33.122Z,77.19
2022-12-25T15:08:41.301Z,81.69
2022-12-25T15:11:49.422Z,85.95
2022-12-25T15:14:57.296Z,89.86
2022-12-25T15:18:05.943Z,92.32
2022-12-25T15:21:17.367Z,93.82
2022-12-25T15:24:23.711Z,95.30
2022-12-25T15:27:29.958Z,96.44
2022-12-25T15:30:39.450Z,96.15
2022-12-25T15:33:45.970Z,96.34
2022-12-25T15:36:52.978Z,94.59
2022-12-25T15:39:59.585Z,92.67
2022-12-25T15:43:11.553Z,88.52
2022-12-25T15:46:30.366Z,86.21
2022-12-25T15:49:36.940Z,84.09
2022-12-25T15:52:43.219Z,83.49
2022-12-25T15:55:49.824Z,83.00
2022-12-25T15:58:56.368Z,81.39
2022-12-25T16:02:04.401Z,80.69
2022-12-25T16:05:11.190Z,86.26
2022-12-25T16:08:17.256Z,92.47
2022-12-25T16:11:23.399Z,92.82
2022-12-25T16:14:29.936Z,98.54
2022-12-25T16:17:37.890Z,98.78
2022-12-25T16:20:44.444Z,100.00
2022-12-25T16:23:50.811Z,100.00
2022-12-25T16:26:57.004Z,100.00
2022-12-25T16:30:04.434Z,97.04
2022-12-25T16:33:12.889Z,100.00
2022-12-25T16:36:23.549Z,98.94
2022-12-25T16:39:33.866Z,100.00
2022-12-25T16:42:40.509Z,100.00
2022-12-25T16:45:47.233Z,100.00
2022-12-25T16:48:56.461Z,100.00
2022-12-25T16:52:03.944Z,100.00
2022-12-25T16:55:11.066Z,100.00
2022-12-25T16:58:17.836Z,100.00
2022-12-25T17:01:24.515Z,100.00
2022-12-25T17:04:32.507Z,100.00
2022-12-25T17:07:39.315Z,100.00
2022-12-25T17:10:46.819Z,100.00
2022-12-25T17:13:53.045Z,100.00
2022-12-25T17:16:59.293Z,100.00
2022-12-25T17:20:08.536Z,100.00
2022-12-25T17:23:15.085Z,100.00
2022-12-25T17:26:21.407Z,100.00
2022-12-25T17:29:28.024Z,100.00
2022-12-25T17:32:35.674Z,100.00
2022-12-25T17:35:43.077Z,100.00
2022-12-25T17:38:50.271Z,100.00
2022-12-25T17:41:56.803Z,100.00
2022-12-25T17:45:02.847Z,100.00
2022-12-25T17:48:09.143Z,100.00
2022-12-25T17:51:18.392Z,100.00
2022-12-25T17:54:24.759Z,100.00
2022-12-25T17:57:30.935Z,100.00
2022-12-25T18:00:37.669Z,100.00
2022-12-25T18:03:44.931Z,100.00
2022-12-25T18:06:52.661Z,100.00
2022-12-25T18:09:59.175Z,100.00
2022-12-25T18:13:05.880Z,100.00
2022-12-25T18:16:13.654Z,100.00
2022-12-25T18:19:20.098Z,100.00
2022-12-25T18:22:28.142Z,100.00
2022-12-25T18:25:34.820Z,100.00
2022-12-25T18:28:42.822Z,100.00
2022-12-25T18:31:49.267Z,100.00
2022-12-25T18:34:55.917Z,100.00
2022-12-25T18:38:03.774Z,100.00
2022-12-25T18:41:11.609Z,100.00
2022-12-25T18:44:17.965Z,100.00
2022-12-25T18:47:24.435Z,100.00
2022-12-25T18:50:31.040Z,100.00
2022-12-25T18:53:38.732Z,100.00
2022-12-25T18:56:47.401Z,100.00
2022-12-25T18:59:56.713Z,100.00
2022-12-25T19:03:03.209Z,100.00
2022-12-25T19:06:10.029Z,100.00
2022-12-25T19:09:17.724Z,100.00
2022-12-25T19:12:25.391Z,100.00
2022-12-25T19:15:31.489Z,100.00
2022-12-25T19:18:37.973Z,100.00
2022-12-25T19:21:44.354Z,100.00
2022-12-25T19:24:52.213Z,100.00
2022-12-25T19:27:58.567Z,100.00
2022-12-25T19:31:07.633Z,100.00
2022-12-25T19:34:14.314Z,100.00
2022-12-25T19:37:20.467Z,100.00
2022-12-25T19:40:28.087Z,100.00
2022-12-25T19:43:36.697Z,100.00
2022-12-25T19:46:43.432Z,100.00
2022-12-25T19:49:53.209Z,100.00
2022-12-25T19:53:00.014Z,100.00
2022-12-25T19:56:07.880Z,100.00
2022-12-25T19:59:14.674Z,100.00
2022-12-25T20:02:21.152Z,100.00
2022-12-25T20:05:27.417Z,100.00
2022-12-25T20:08:33.818Z,100.00
2022-12-25T20:11:42.064Z,100.00
2022-12-25T20:14:49.494Z,100.00
2022-12-25T20:17:55.963Z,100.00
2022-12-25T20:21:02.909Z,100.00
2022-12-25T20:24:11.272Z,100.00
2022-12-25T20:27:19.055Z,100.00
2022-12-25T20:30:25.445Z,100.00
2022-12-25T20:33:31.529Z,100.00
2022-12-25T20:36:38.371Z,100.00
2022-12-25T20:39:45.259Z,100.00
2022-12-25T20:42:53.029Z,100.00
2022-12-25T20:45:59.862Z,100.00
2022-12-25T20:49:06.815Z,100.00
2022-12-25T20:52:13.421Z,100.00
2022-12-25T20:55:20.270Z,100.00
2022-12-25T20:58:28.228Z,100.00
2022-12-25T21:01:34.810Z,100.00
2022-12-25T21:04:41.337Z,100.00
2022-12-25T21:07:47.959Z,100.00
2022-12-25T21:11:00.799Z,100.00
2022-12-25T21:14:10.148Z,100.00
2022-12-25T21:17:16.309Z,100.00
2022-12-25T21:20:22.991Z,100.00
2022-12-25T21:23:30.561Z,100.00
2022-12-25T21:26:37.069Z,100.00
2022-12-25T21:29:44.825Z,100.00
2022-12-25T21:33:08.616Z,100.00
2022-12-25T21:36:17.571Z,100.00
2022-12-25T21:39:24.047Z,100.00
2022-12-25T21:42:32.134Z,100.00
2022-12-25T21:45:39.573Z,100.00
2022-12-25T21:48:46.410Z,100.00
2022-12-25T21:52:09.684Z,100.00
2022-12-25T21:55:16.296Z,100.00
2022-12-25T21:58:22.625Z,100.00
2022-12-25T22:01:31.667Z,100.00
2022-12-25T22:04:38.034Z,100.00
2022-12-25T22:07:43.413Z,100.00
2022-12-25T22:10:50.003Z,100.00
2022-12-25T22:14:13.858Z,100.00
2022-12-25T22:17:41.596Z,100.00
2022-12-25T22:20:47.622Z,100.00
2022-12-25T22:23:53.695Z,100.00
2022-12-25T22:27:00.076Z,100.00
2022-12-25T22:30:08.158Z,100.00
2022-12-25T22:33:16.080Z,100.00
2022-12-25T22:36:23.650Z,100.00
2022-12-25T22:39:31.622Z,100.00
2022-12-25T22:42:37.862Z,100.00
2022-12-25T22:45:44.276Z,100.00
2022-12-25T22:48:52.132Z,100.00
2022-12-25T22:51:58.973Z,100.00
2022-12-25T22:55:06.019Z,100.00
2022-12-25T22:58:12.299Z,100.00
2022-12-25T23:01:18.493Z,100.00
2022-12-25T23:04:26.319Z,100.00
2022-12-25T23:07:33.000Z,100.00
2022-12-25T23:10:39.422Z,100.00
2022-12-25T23:14:03.535Z,100.00
2022-12-25T23:17:25.952Z,100.00
2022-12-25T23:20:51.843Z,100.00
2022-12-25T23:24:15.687Z,100.00
2022-12-25T23:27:22.115Z,100.00
2022-12-25T23:30:28.580Z,100.00
2022-12-25T23:33:34.689Z,100.00
2022-12-25T23:36:42.732Z,100.00
2022-12-25T23:39:50.285Z,100.00
2022-12-25T23:42:56.553Z,100.00
2022-12-25T23:46:03.107Z,100.00
2022-12-25T23:49:10.394Z,100.00
2022-12-25T23:52:18.923Z,100.00
2022-12-25T23:55:25.807Z,100.00
2022-12-25T23:58:32.250Z,100.00
